INFORMACIÓN METAR y TAF
METAR FOR EBBR
ADDS - METARS form results

(0707 UTC 15 April 2021)
Data provider http://aviationweather.gov/metar/data/
 
METAR text: EBBR 150650Z VRB01KT 9999 FEW049 02/01 Q1031 NOSIG
Conditions at: EBBR (BRUSSELS NATIONA, BE) observed 0650 UTC 15 April 2021
Temperature: 2.0°C (36°F)
Dewpoint: 1.0°C (34°F) [RH = 93%]
Pressure (altimeter): 30.44 inches Hg (1031.0 mb)
Winds: variable direction winds at 1 MPH (1 knots; 0.5 m/s)
Visibility: 6 or more miles (10+ km)
Ceiling: at least 12,000 feet AGL
Clouds: few clouds at 4900 feet AGL
Weather: no significant weather observed at this time

METAR text: EBBR 150620Z 00000KT CAVOK 02/00 Q1031 NOSIG
Conditions at: EBBR (BRUSSELS NATIONA, BE) observed 0620 UTC 15 April 2021
Temperature: 2.0°C (36°F)
Dewpoint: 0.0°C (32°F) [RH = 87%]
Pressure (altimeter): 30.44 inches Hg (1031.0 mb)
Winds: calm
Visibility: 6 or more miles (10+ km)
Ceiling: ceiling and visibility are OK
Clouds: unknown
Weather: no significant weather observed at this time

Forecast for: EBBR (BRUSSELS NATIONA, BE)
Text: TAF EBBR 150510Z 1506/1612 04005KT 9999 SCT020
Forecast period: 0600 UTC 15 April 2021 to 1200 UTC 16 April 2021
Forecast type: FROM: standard forecast or significant change
Winds: from the NE (40 degrees) at 6 MPH (5 knots; 2.6 m/s)
Visibility: 6 or more miles (10+ km)
Ceiling: at least 12,000 feet AGL
Clouds: scattered clouds at 2000 feet AGL
Weather: no significant weather forecast for this period

 MAPA DE AEROPUERTO

 INFORMACIÓN DE PISTA
Pista 01 Longitud 9800 ft Ancho 164 ft
Elevación 183 ft Umbral desplazado 151 ft Rumbo de pista 14
Pista 19 Longitud 9800 ft Ancho 164 ft
Elevación 113 ft Umbral desplazado 571 ft Rumbo de pista 194
Pista 07L Longitud 11936 ft Ancho 148 ft
Elevación 129 ft Umbral desplazado 846 ft Rumbo de pista 65
Pista 25R Longitud 11936 ft Ancho 148 ft
Elevación 110 ft Umbral desplazado 984 ft Rumbo de pista 245
Pista 07R Longitud 10535 ft Ancho 148 ft
Elevación 175 ft Umbral desplazado 400 ft Rumbo de pista 70
Pista 25L Longitud 10535 ft Ancho 148 ft
Elevación 159 ft Umbral desplazado 0 ft Rumbo de pista 250

 FRECUANCIAS DEL AEROPUERTO
Tipo APP Nombre APP Frecuencia 118.25 MHZ
Tipo ATIS Nombre ATIS DEP Frecuencia 121.75 MHZ
Tipo ATIS Nombre ATIS ARR Frecuencia 132.475 MHZ
Tipo CLD Nombre CLNC DEL Frecuencia 121.95 MHZ
Tipo DEP Nombre DEP Frecuencia 126.625 MHZ
Tipo GND Nombre GND North Frecuencia 118.05 MHZ
Tipo GND Nombre GND South Frecuencia 121.875 MHZ
Tipo OPS Nombre MELSBROEK Frecuencia 140.575 MHZ
Tipo TWR Nombre TWR (RWY 0 Frecuencia 118.6 MHZ
Tipo TWR Nombre TWR (RWY 0 Frecuencia 120.775 MHZ
Tipo UNIC Nombre ABELAG UNI Frecuencia 130.55 MHZ

 RADIO AYUDAS DEL AEROPUERTO
Tipo VOR-DME Nombre Affligem Frecuencia 114900 KHZ
Tipo VOR-DME Nombre Brussels Frecuencia 114600 KHZ
Tipo VOR-DME Nombre Bruno Frecuencia 110600 KHZ
Tipo NDB Nombre Brussels Frecuencia 293 KHZ
Tipo NDB Nombre Brussels Frecuencia 314 KHZ



Powered by Virtual Airlines Manager [v2.6.2]